Date,TemperatureHighF,TemperatureAvgF,TemperatureLowF,DewpointHighF,DewpointAvgF,DewpointLowF,HumidityHigh,HumidityAvg,HumidityLow,PressureMaxIn,PressureMinIn,WindSpeedMaxMPH,WindSpeedAvgMPH,GustSpeedMaxMPH,PrecipitationSumIn
2013-9-1,72,64,55,64,60,54,99,89,65,0.00,40.00,8,5,19,0.23
2013-9-2,57,51,43,53,48,42,99,90,75,0.00,40.00,6,4,14,0.28
2013-9-3,73,56,37,54,47,37,99,77,46,0.00,40.00,7,3,15,0.00
2013-9-4,67,59,42,56,50,41,98,74,51,0.00,40.00,6,4,14,0.00
2013-9-5,75,56,37,55,46,36,98,74,39,0.00,40.00,4,2,10,0.00
2013-9-6,79,66,56,68,60,51,97,81,68,0.00,40.00,8,4,17,0.02
2013-9-7,80,65,49,68,60,-100,98,85,66,0.00,40.00,8,3,14,0.02
2013-9-8,70,57,39,58,49,38,99,79,50,0.00,40.00,6,2,14,0.00
2013-9-9,75,65,59,69,62,52,99,90,77,0.00,40.00,7,3,13,0.08
2013-9-10,75,68,61,68,65,61,99,90,70,0.00,40.00,7,3,15,0.11
2013-9-11,76,64,51,62,57,50,99,82,50,0.00,40.00,10,4,20,0.01
2013-9-12,60,54,47,55,48,41,99,83,61,0.00,40.00,9,4,21,0.01
2013-9-13,63,48,32,47,41,32,98,81,47,0.00,40.00,5,1,11,0.00
2013-9-14,68,51,35,53,43,-100,99,80,49,0.00,40.00,9,3,18,0.02
2013-9-15,55,48,31,54,46,31,99,92,75,0.00,40.00,9,2,17,0.14
2013-9-16,64,44,28,44,36,27,98,77,42,0.00,40.00,5,2,10,0.03
2013-9-17,66,53,35,50,43,34,98,72,40,0.00,40.00,9,5,19,0.00
2013-9-18,63,58,56,62,54,51,96,89,77,0.00,40.00,8,6,18,0.01
2013-9-19,80,68,63,69,65,62,98,90,68,0.00,40.00,10,4,19,0.03
2013-9-20,66,59,47,64,56,46,98,88,71,0.00,40.00,8,5,18,0.01
2013-9-21,51,44,31,47,39,-100,98,85,61,0.00,40.00,7,4,16,0.12
2013-9-22,62,44,30,45,37,29,99,80,47,0.00,40.00,6,2,11,0.04
2013-9-23,69,53,43,50,45,41,93,76,50,0.00,40.00,8,5,17,0.00
2013-9-24,73,57,40,51,47,39,98,74,41,0.00,40.00,6,4,12,0.00
2013-9-25,74,60,41,55,48,40,98,71,36,0.00,40.00,6,2,13,0.00
2013-9-26,73,61,41,52,49,40,99,68,43,0.00,40.00,7,4,17,0.00
2013-9-27,78,66,55,56,52,47,85,63,46,0.00,40.00,12,7,23,0.00
2013-9-28,75,62,51,61,50,-100,94,70,52,0.00,40.00,15,9,33,0.26
2013-9-29,69,57,40,47,44,39,97,65,34,0.00,40.00,8,5,17,0.19
2013-9-30,72,61,52,46,45,43,80,57,38,0.00,40.00,15,9,31,0.00